Time;durP1;ratioP1;P1;durP2;ratioP2;P2;SDS_P1;SDS_P2;PMS_P1;PMS_P2;Temp;Humidity;BMP_temperature;BMP_pressure;BME280_temperature;BME280_humidity;BME280_pressure;Samples;Min_cycle;Max_cycle;Signal;HPM_P1;HPM_P2
2021/12/17 00:00:09;;;;;;;3.73;1.60;;;1.10;99.90;;;0.72;94.88;99182.53;171964;28;880;-76
2021/12/17 00:00:18;;;;;;;4.53;1.86;;;1.10;99.90;;;0.72;95.06;99182.53;172429;28;1427;-76
2021/12/17 00:00:24;;;;;;;4.99;2.08;;;1.00;99.90;;;0.67;94.42;99169.53;171870;28;1098;-75
2021/12/17 00:00:31;;;;;;;4.88;2.10;;;1.00;99.90;;;0.61;94.89;99169.00;173859;28;1180;-76
2021/12/17 00:00:46;;;;;;;4.94;2.04;;;1.10;99.90;;;0.70;95.22;99185.25;172448;28;1473;-76
2021/12/17 00:00:59;;;;;;;6.47;2.00;;;1.00;99.90;;;0.65;94.71;99184.66;171182;28;1397;-75
2021/12/17 00:01:10;;;;;;;6.74;1.86;;;1.00;99.90;;;0.49;94.92;99148.47;172532;28;1222;-75
2021/12/17 00:01:17;;;;;;;4.26;1.66;;;1.10;99.90;;;0.60;94.48;99172.59;171848;28;1337;-76
2021/12/17 00:01:45;;;;;;;3.27;1.63;;;1.00;99.90;;;0.65;95.12;99186.44;171853;28;1503;-76
2021/12/17 00:03:06;;;;;;;4.17;1.50;;;1.00;99.90;;;0.58;95.36;99172.66;170662;28;1049;-75
2021/12/17 00:03:16;;;;;;;2.39;1.39;;;1.00;99.90;;;0.62;95.65;99171.56;170513;29;1183;-75
2021/12/17 00:03:33;;;;;;;2.59;1.34;;;1.00;99.90;;;0.53;95.80;99166.75;170579;28;1408;-75
2021/12/17 00:03:50;;;;;;;3.11;1.42;;;1.00;99.90;;;0.60;95.29;99177.91;171153;28;1368;-75
2021/12/17 00:04:03;;;;;;;3.36;1.54;;;1.00;99.90;;;0.66;95.34;99189.03;171861;28;1482;-76
2021/12/17 00:04:25;;;;;;;4.41;1.64;;;1.00;99.90;;;0.62;95.78;99176.84;171230;28;1399;-76
2021/12/17 00:04:51;;;;;;;3.58;1.41;;;1.00;99.90;;;0.60;95.72;99177.91;171186;28;1398;-76
2021/12/17 00:05:10;;;;;;;4.50;1.58;;;0.90;99.90;;;0.66;95.66;99191.66;173299;28;883;-75
2021/12/17 00:05:18;;;;;;;4.70;1.71;;;1.00;99.90;;;0.60;95.95;99184.06;172613;28;1217;-76
2021/12/17 00:05:42;;;;;;;4.79;1.89;;;1.00;99.90;;;0.47;96.04;99156.50;172577;28;1033;-76
2021/12/17 00:06:18;;;;;;;2.65;1.72;;;1.00;99.90;;;0.42;95.78;99154.09;171865;28;927;-75
2021/12/17 00:06:42;;;;;;;4.20;1.83;;;1.00;99.90;;;0.57;96.45;99175.41;172559;28;1037;-76
2021/12/17 00:06:47;;;;;;;4.45;1.88;;;0.90;99.90;;;0.52;96.48;99162.41;171846;28;1218;-75
2021/12/17 00:06:54;;;;;;;4.33;1.83;;;1.00;99.90;;;0.63;96.11;99183.88;172485;28;1299;-75
2021/12/17 00:07:00;;;;;;;3.43;1.40;;;0.90;99.90;;;0.58;96.24;99175.31;171335;28;1002;-75
2021/12/17 00:07:12;;;;;;;3.07;1.37;;;0.90;99.90;;;0.47;96.12;99156.50;171205;28;1027;-75
2021/12/17 00:07:21;;;;;;;2.64;1.16;;;0.90;99.90;;;0.58;96.04;99174.47;171911;28;1207;-76
2021/12/17 00:07:35;;;;;;;2.49;1.13;;;0.90;99.90;;;0.58;95.88;99180.63;169839;29;1308;-76
2021/12/17 00:07:41;;;;;;;2.51;1.23;;;0.90;99.90;;;0.55;96.00;99178.16;170547;29;1253;-76
2021/12/17 00:07:47;;;;;;;2.85;1.30;;;0.90;99.90;;;0.51;96.04;99165.16;171227;28;908;-75
2021/12/17 00:07:52;;;;;;;3.40;1.30;;;0.90;99.90;;;0.61;96.49;99193.72;171926;28;1013;-76
2021/12/17 00:07:58;;;;;;;3.77;1.37;;;0.90;99.90;;;0.54;96.47;99171.13;171779;28;1298;-75
2021/12/17 00:08:04;;;;;;;3.97;1.40;;;0.90;99.90;;;0.57;96.58;99175.41;171906;28;943;-75
2021/12/17 00:08:12;;;;;;;3.75;1.40;;;0.90;99.90;;;0.51;96.67;99166.00;171922;28;923;-75
2021/12/17 00:08:22;;;;;;;3.87;1.40;;;0.90;99.90;;;0.63;96.33;99189.16;172529;28;1266;-75
2021/12/17 00:08:28;;;;;;;3.03;1.44;;;0.90;99.90;;;0.43;96.48;99154.97;172463;28;1559;-75
2021/12/17 00:08:39;;;;;;;2.97;1.50;;;1.00;99.90;;;0.53;96.14;99166.75;171913;28;978;-76
2021/12/17 00:08:51;;;;;;;2.89;1.50;;;0.90;99.90;;;0.56;96.65;99179.00;171827;28;1215;-76
2021/12/17 00:08:58;;;;;;;2.63;1.49;;;0.90;99.90;;;0.55;96.30;99178.16;171919;28;1210;-75
2021/12/17 00:09:03;;;;;;;2.77;1.40;;;0.90;99.90;;;0.58;96.48;99179.75;171785;28;1243;-75
2021/12/17 00:09:09;;;;;;;2.70;1.40;;;0.90;99.90;;;0.51;96.50;99175.75;171808;28;1207;-75
2021/12/17 00:09:16;;;;;;;2.95;1.50;;;0.90;99.90;;;0.64;96.70;99193.53;171211;28;1196;-76
2021/12/17 00:09:23;;;;;;;2.80;1.40;;;0.90;99.90;;;0.63;96.36;99196.25;170001;29;837;-76
2021/12/17 00:09:29;;;;;;;2.54;1.28;;;0.90;99.90;;;0.47;96.83;99159.13;171798;28;1301;-75
2021/12/17 00:09:35;;;;;;;2.75;1.30;;;0.90;99.90;;;0.52;96.40;99169.53;170547;29;1031;-75
2021/12/17 00:09:48;;;;;;;2.54;1.24;;;0.90;99.90;;;0.58;96.49;99185.06;171090;28;1965;-76
2021/12/17 00:10:00;;;;;;;3.38;1.34;;;0.90;99.90;;;0.33;96.28;99141.34;171307;28;1216;-75
2021/12/17 00:10:17;;;;;;;4.47;1.45;;;0.90;99.90;;;0.60;96.07;99194.66;169924;29;1113;-76
2021/12/17 00:10:23;;;;;;;3.97;1.35;;;0.90;99.90;;;0.21;96.31;99122.63;171220;28;1224;-76
2021/12/17 00:10:29;;;;;;;2.97;1.35;;;0.90;99.90;;;0.39;95.89;99159.56;170421;28;1365;-75
2021/12/17 00:10:35;;;;;;;2.80;1.23;;;0.90;99.90;;;0.51;96.34;99179.25;170489;28;1220;-76
2021/12/17 00:10:44;;;;;;;2.97;1.45;;;0.90;99.90;;;0.52;95.96;99183.59;171799;28;1391;-75
2021/12/17 00:10:51;;;;;;;3.44;1.57;;;0.90;99.90;;;0.35;95.94;99154.53;171178;28;1055;-76
2021/12/17 00:10:57;;;;;;;3.08;1.52;;;0.90;99.90;;;0.55;95.50;99191.41;171237;28;1804;-76
2021/12/17 00:11:06;;;;;;;2.72;1.50;;;0.90;99.90;;;0.39;95.72;99164.88;172579;28;963;-75
2021/12/17 00:11:12;;;;;;;2.93;1.40;;;0.90;99.90;;;0.50;96.11;99188.13;171296;28;971;-76
2021/12/17 00:11:21;;;;;;;3.53;1.30;;;0.90;99.90;;;0.54;95.75;99194.13;169838;28;1403;-76
2021/12/17 00:11:27;;;;;;;4.29;1.23;;;0.90;99.90;;;0.52;95.89;99183.59;171862;28;1053;-76
2021/12/17 00:11:33;;;;;;;4.22;1.20;;;0.90;99.90;;;0.46;96.03;99178.66;171201;28;930;-76
2021/12/17 00:11:39;;;;;;;4.40;1.40;;;0.80;99.90;;;0.44;96.17;99167.28;170634;29;1109;-76
2021/12/17 00:11:45;;;;;;;4.22;1.40;;;0.80;99.90;;;0.41;95.62;99173.56;171203;28;1281;-76
2021/12/17 00:11:51;;;;;;;2.53;1.40;;;0.90;99.90;;;0.35;95.59;99159.81;171816;28;1367;-76
2021/12/17 00:11:57;;;;;;;3.30;1.48;;;0.80;99.90;;;0.50;95.70;99182.84;170449;28;1292;-76
2021/12/17 00:12:09;;;;;;;3.58;1.48;;;0.80;99.90;;;0.42;95.69;99179.72;170847;28;2437;-76
2021/12/17 00:12:20;;;;;;;3.16;1.20;;;0.80;99.90;;;0.46;95.67;99181.31;171785;28;1333;-76
2021/12/17 00:12:28;;;;;;;3.01;1.33;;;0.90;99.90;;;0.49;95.48;99182.91;170369;28;1489;-76
2021/12/17 00:12:34;;;;;;;2.76;1.52;;;0.90;99.90;;;0.47;95.48;99176.84;169840;29;893;-76
2021/12/17 00:12:41;;;;;;;2.73;1.63;;;0.80;99.90;;;0.43;95.53;99177.00;171153;28;1362;-75
2021/12/17 00:12:47;;;;;;;3.24;1.70;;;0.80;99.90;;;0.41;95.88;99176.22;171779;28;1015;-75
2021/12/17 00:12:53;;;;;;;3.15;1.55;;;0.90;99.90;;;0.48;95.71;99190.00;170540;28;1466;-75
2021/12/17 00:12:59;;;;;;;3.40;1.55;;;0.80;99.90;;;0.47;95.47;99190.09;170623;29;801;-75
2021/12/17 00:13:05;;;;;;;2.97;1.40;;;0.80;99.90;;;0.43;95.48;99182.31;171938;28;963;-76
2021/12/17 00:13:11;;;;;;;2.77;1.27;;;0.80;99.90;;;0.24;95.53;99144.50;170530;28;1497;-76
2021/12/17 00:13:19;;;;;;;2.70;1.17;;;0.80;99.90;;;0.34;95.84;99171.34;171243;28;1435;-76
2021/12/17 00:13:25;;;;;;;3.10;1.10;;;0.80;99.90;;;0.43;95.78;99179.66;172532;28;1278;-76
2021/12/17 00:13:33;;;;;;;3.63;1.23;;;0.80;99.90;;;0.41;95.86;99178.88;172503;28;1370;-75
2021/12/17 00:13:42;;;;;;;4.33;1.30;;;0.80;99.90;;;0.43;95.92;99178.81;171779;28;1384;-76
2021/12/17 00:13:51;;;;;;;4.77;1.33;;;0.80;99.90;;;0.45;95.59;99189.31;172505;28;1335;-75
2021/12/17 00:13:58;;;;;;;4.22;1.36;;;0.80;99.90;;;0.37;95.82;99164.09;169742;28;1566;-75
2021/12/17 00:14:04;;;;;;;2.93;1.30;;;0.80;99.90;;;0.35;95.49;99160.69;170459;29;1317;-75
2021/12/17 00:14:13;;;;;;;2.80;1.30;;;0.80;99.90;;;0.47;95.95;99182.16;169870;29;912;-75
2021/12/17 00:14:27;;;;;;;2.29;1.41;;;0.80;99.90;;;0.33;95.47;99153.75;170466;29;1345;-75
2021/12/17 00:14:37;;;;;;;2.03;1.31;;;0.80;99.90;;;0.48;95.71;99186.50;170568;29;1228;-76
2021/12/17 00:14:48;;;;;;;1.92;1.38;;;0.80;99.90;;;0.45;95.29;99179.59;171060;28;1274;-76
2021/12/17 00:14:55;;;;;;;2.17;1.36;;;0.80;99.90;;;0.40;95.86;99181.63;171920;28;1370;-75
2021/12/17 00:15:05;;;;;;;2.38;1.36;;;0.80;99.90;;;0.40;95.14;99181.63;170513;28;959;-75
2021/12/17 00:15:12;;;;;;;3.00;1.32;;;0.80;99.90;;;0.43;95.57;99176.16;171857;28;1425;-76
2021/12/17 00:15:18;;;;;;;3.50;1.30;;;0.80;99.90;;;0.32;95.51;99159.97;170638;29;880;-76
2021/12/17 00:15:24;;;;;;;3.67;1.27;;;0.80;99.90;;;0.32;95.33;99157.31;171815;28;1469;-76
2021/12/17 00:15:30;;;;;;;3.58;1.23;;;0.80;99.90;;;0.42;95.58;99185.03;171951;28;872;-76
2021/12/17 00:15:37;;;;;;;3.37;1.23;;;0.80;99.90;;;0.43;95.08;99182.31;172410;28;1295;-75
2021/12/17 00:15:44;;;;;;;3.24;1.30;;;0.80;99.90;;;0.45;95.11;99194.63;171857;28;1058;-76
2021/12/17 00:15:50;;;;;;;3.60;1.30;;;0.80;99.90;;;0.46;95.20;99188.38;172594;28;923;-76
2021/12/17 00:15:57;;;;;;;3.88;1.30;;;0.80;99.90;;;0.38;95.29;99175.53;173155;28;1500;-75
2021/12/17 00:16:13;;;;;;;4.22;1.30;;;0.80;99.90;;;0.33;95.07;99165.19;171767;28;1395;-75
2021/12/17 00:16:23;;;;;;;3.84;1.24;;;0.80;99.90;;;0.33;95.18;99169.63;172607;28;1184;-76
2021/12/17 00:16:35;;;;;;;2.29;1.17;;;0.70;99.90;;;0.42;95.00;99185.88;173205;28;1355;-75
2021/12/17 00:16:41;;;;;;;1.85;1.02;;;0.70;99.90;;;0.38;95.11;99178.19;171180;28;1338;-76
2021/12/17 00:16:47;;;;;;;2.67;1.10;;;0.70;99.90;;;0.32;95.00;99173.22;171866;28;879;-76
2021/12/17 00:17:00;;;;;;;2.83;1.13;;;0.70;99.90;;;0.38;95.58;99187.00;171242;28;867;-75
2021/12/17 00:17:13;;;;;;;3.54;1.27;;;0.70;99.90;;;0.40;95.34;99190.44;171893;28;1199;-75
2021/12/17 00:17:26;;;;;;;2.69;1.23;;;0.70;99.90;;;0.39;95.23;99186.06;170555;28;1494;-75
2021/12/17 00:17:36;;;;;;;2.43;1.17;;;0.70;99.90;;;0.45;95.63;99189.31;171186;28;1490;-75
2021/12/17 00:17:52;;;;;;;3.58;1.42;;;0.80;99.90;;;0.27;95.57;99164.66;171888;28;1235;-75
2021/12/17 00:18:06;;;;;;;3.51;1.48;;;0.70;99.90;;;0.41;95.73;99186.81;171251;28;1200;-76
2021/12/17 00:18:23;;;;;;;2.61;1.39;;;0.80;99.90;;;0.37;95.81;99171.19;171926;28;1187;-76
2021/12/17 00:18:31;;;;;;;1.98;1.29;;;0.80;99.90;;;0.38;95.78;99180.84;171223;28;1203;-76
2021/12/17 00:18:51;;;;;;;2.57;1.20;;;0.80;99.90;;;0.42;95.86;99192.97;171821;28;1695;-76
2021/12/17 00:19:09;;;;;;;2.72;1.29;;;0.70;99.90;;;0.43;96.36;99189.41;171885;28;1227;-76
2021/12/17 00:20:16;;;;;;;3.43;1.10;;;0.80;99.90;;;0.46;96.13;99181.31;171934;28;1096;-76
2021/12/17 00:40:24;;;;;;;2.72;1.06;;;0.80;99.90;;;0.39;95.66;99185.22;173284;28;1195;-76
2021/12/17 00:40:28;;;;;;;3.06;1.17;;;0.80;99.90;;;0.48;96.06;99197.94;171107;28;1286;-75
2021/12/17 00:44:14;;;;;;;1.86;1.15;;;0.70;99.90;;;0.36;96.03;99206.56;171260;28;1194;-76
2021/12/17 00:48:38;;;;;;;2.39;1.27;;;0.70;99.90;;;0.37;96.20;99213.56;171371;28;1465;-75
2021/12/17 00:48:44;;;;;;;2.83;1.34;;;0.70;99.90;;;0.40;95.74;99211.63;172369;28;1459;-75
2021/12/17 00:48:50;;;;;;;3.17;1.37;;;0.70;99.90;;;0.40;95.56;99214.28;172554;28;808;-76
2021/12/17 00:48:56;;;;;;;3.17;1.37;;;0.70;99.90;;;0.39;95.60;99215.22;172474;28;1437;-75
2021/12/17 00:49:05;;;;;;;2.53;1.27;;;0.70;99.90;;;0.39;96.14;99219.66;172459;28;1814;-75
2021/12/17 00:49:11;;;;;;;3.47;1.30;;;0.70;99.90;;;0.33;95.85;99198.78;172437;28;1279;-75
2021/12/17 00:49:18;;;;;;;3.38;1.38;;;0.70;99.90;;;0.36;96.11;99209.22;172326;28;1419;-75
2021/12/17 00:49:36;;;;;;;3.38;1.20;;;0.70;99.90;;;0.33;96.13;99207.59;171128;28;1400;-75
2021/12/17 00:50:12;;;;;;;3.09;1.21;;;0.70;99.90;;;0.31;95.48;99206.78;172571;28;1217;-75
2021/12/17 00:51:08;;;;;;;2.63;1.21;;;0.60;99.90;;;0.28;95.44;99198.16;171180;28;1669;-76
2021/12/17 00:51:49;;;;;;;2.89;1.19;;;0.60;99.90;;;0.33;95.40;99219.97;171868;28;1002;-75
2021/12/17 00:51:59;;;;;;;2.53;1.23;;;0.60;99.90;;;0.27;95.61;99205.25;171915;28;946;-75
2021/12/17 00:52:05;;;;;;;3.36;1.31;;;0.60;99.90;;;0.30;95.60;99191.88;171758;28;1397;-75
2021/12/17 00:52:11;;;;;;;3.57;1.20;;;0.70;99.90;;;0.30;96.18;99193.66;171927;28;899;-75
2021/12/17 00:52:17;;;;;;;2.78;1.08;;;0.60;99.90;;;0.26;96.22;99185.00;172571;28;892;-75
2021/12/17 00:52:25;;;;;;;2.10;1.03;;;0.70;99.90;;;0.36;95.68;99201.28;171964;28;828;-75
2021/12/17 00:52:35;;;;;;;1.93;1.03;;;0.70;99.90;;;0.39;96.28;99201.97;171847;28;1433;-75
2021/12/17 00:52:41;;;;;;;1.77;1.00;;;0.70;99.90;;;0.38;95.89;99205.53;171948;28;915;-75
2021/12/17 00:52:47;;;;;;;1.83;1.00;;;0.70;99.90;;;0.04;95.98;99141.22;173097;28;1238;-75
2021/12/17 00:52:54;;;;;;;1.97;1.00;;;0.70;99.90;;;0.21;95.75;99167.63;172653;28;836;-75
2021/12/17 00:53:00;;;;;;;2.10;1.10;;;0.70;99.90;;;0.42;95.74;99207.09;171093;28;1300;-75
2021/12/17 00:53:06;;;;;;;2.15;1.10;;;0.70;99.90;;;0.44;96.23;99207.00;169830;29;866;-75
2021/12/17 00:53:17;;;;;;;2.23;1.20;;;0.70;99.90;;;0.42;96.01;99211.53;172509;28;1414;-75
2021/12/17 00:53:26;;;;;;;2.21;1.17;;;0.70;99.90;;;0.43;95.66;99213.25;173777;28;1400;-76
2021/12/17 00:53:32;;;;;;;2.23;1.34;;;0.70;99.90;;;0.40;95.49;99208.13;172465;28;1350;-76
2021/12/17 00:53:38;;;;;;;2.28;1.40;;;0.70;99.90;;;0.29;95.67;99200.75;172560;28;935;-75
2021/12/17 00:53:44;;;;;;;2.35;1.42;;;0.70;99.90;;;0.27;95.96;99192.00;173757;28;1459;-75
2021/12/17 00:53:51;;;;;;;2.90;1.53;;;0.70;99.90;;;0.31;95.50;99196.19;172578;28;1584;-75
2021/12/17 00:54:02;;;;;;;3.00;1.37;;;0.70;99.90;;;0.43;95.84;99219.41;170566;28;979;-75
2021/12/17 00:54:28;;;;;;;2.70;1.27;;;0.70;99.90;;;0.44;95.72;99214.97;173233;28;1284;-75
2021/12/17 00:54:41;;;;;;;2.22;1.17;;;0.70;99.90;;;0.46;95.93;99215.75;173728;28;1661;-75
2021/12/17 00:54:47;;;;;;;2.06;1.05;;;0.80;99.90;;;0.42;96.09;99204.44;172449;28;1481;-75
2021/12/17 00:54:53;;;;;;;2.17;1.00;;;0.80;99.90;;;0.42;96.39;99200.94;173924;28;1215;-75
2021/12/17 00:55:00;;;;;;;2.43;1.00;;;0.80;99.90;;;0.49;95.92;99215.56;173943;28;1009;-75
2021/12/17 00:55:08;;;;;;;2.30;1.10;;;0.80;99.90;;;0.42;96.09;99207.09;172076;28;1672;-76
2021/12/17 00:55:14;;;;;;;2.24;1.11;;;0.80;99.90;;;0.51;96.09;99221.66;173145;28;996;-75
2021/12/17 00:55:21;;;;;;;2.63;1.20;;;0.80;99.90;;;0.43;95.89;99206.16;173253;28;898;-75
2021/12/17 00:55:27;;;;;;;2.87;1.27;;;0.80;99.90;;;0.45;96.47;99206.06;172488;28;1273;-76
2021/12/17 00:55:33;;;;;;;3.20;1.30;;;0.80;99.90;;;0.15;95.72;99152.09;171186;28;936;-75
2021/12/17 00:55:38;;;;;;;3.37;1.33;;;0.80;99.90;;;0.53;95.96;99219.75;170576;29;1047;-76
2021/12/17 00:55:45;;;;;;;3.28;1.33;;;0.80;99.90;;;0.50;96.37;99216.44;171134;28;1315;-76
2021/12/17 00:55:52;;;;;;;3.07;1.30;;;0.80;99.90;;;0.47;95.88;99209.47;170491;28;1450;-75
2021/12/17 00:55:58;;;;;;;3.36;1.26;;;0.80;99.90;;;0.47;96.17;99206.84;170462;28;1465;-75
2021/12/17 00:56:04;;;;;;;2.95;1.20;;;0.80;99.90;;;0.39;95.95;99201.09;171828;28;1026;-75
2021/12/17 00:56:10;;;;;;;3.17;1.10;;;0.80;99.90;;;0.47;96.03;99206.00;173226;28;911;-75
2021/12/17 00:56:16;;;;;;;3.35;1.15;;;0.80;99.90;;;0.51;96.00;99218.16;171926;28;856;-75
2021/12/17 00:56:23;;;;;;;3.20;1.20;;;0.80;99.90;;;0.40;96.24;99200.16;172451;28;1472;-75
2021/12/17 00:56:30;;;;;;;2.98;1.18;;;0.80;99.90;;;0.36;96.04;99196.81;173845;28;1488;-75
2021/12/17 00:56:36;;;;;;;3.25;1.30;;;0.80;99.90;;;0.49;96.44;99214.72;171929;28;1002;-76
2021/12/17 00:56:42;;;;;;;2.95;1.17;;;0.80;99.90;;;0.51;95.85;99216.34;173243;28;1444;-75
2021/12/17 00:56:52;;;;;;;2.72;1.05;;;0.80;99.90;;;0.44;96.27;99209.66;173087;28;1215;-75
2021/12/17 00:57:31;;;;;;;2.80;1.02;;;0.80;99.90;;;0.45;96.28;99216.69;171892;28;1130;-75
2021/12/17 00:57:41;;;;;;;2.36;0.90;;;0.80;99.90;;;0.48;96.14;99223.59;171234;28;1314;-75
2021/12/17 00:57:47;;;;;;;1.67;0.85;;;0.80;99.90;;;0.41;96.28;99209.84;171736;28;1492;-76
2021/12/17 00:57:53;;;;;;;1.60;0.80;;;0.80;99.90;;;0.35;96.29;99189.81;172440;28;1350;-75
2021/12/17 00:57:59;;;;;;;1.85;0.88;;;0.80;99.90;;;0.33;95.84;99186.38;172022;28;1122;-75
2021/12/17 00:58:05;;;;;;;1.97;0.90;;;0.80;99.90;;;0.50;96.27;99216.44;173171;28;1297;-76
2021/12/17 00:58:11;;;;;;;2.03;0.90;;;0.90;99.90;;;0.46;95.94;99206.94;172465;28;1596;-75
2021/12/17 00:58:17;;;;;;;2.08;1.00;;;0.90;99.90;;;0.47;96.44;99211.31;173178;28;1366;-75
2021/12/17 00:58:23;;;;;;;2.40;1.20;;;0.80;99.90;;;0.49;95.98;99215.56;172455;28;1433;-75
2021/12/17 00:58:29;;;;;;;2.20;1.13;;;0.90;99.90;;;0.52;95.90;99223.34;171908;28;979;-75
2021/12/17 00:58:35;;;;;;;2.03;1.10;;;0.90;99.90;;;0.52;96.39;99215.38;170451;28;1323;-75
2021/12/17 00:58:41;;;;;;;2.10;1.10;;;0.80;99.90;;;0.55;95.89;99222.34;172492;28;1189;-75
2021/12/17 00:58:47;;;;;;;2.55;1.13;;;0.90;99.90;;;0.50;95.97;99217.28;171774;28;1318;-75
2021/12/17 00:58:54;;;;;;;2.70;1.08;;;0.90;99.90;;;0.48;96.18;99215.63;172432;28;1332;-75
2021/12/17 00:59:00;;;;;;;3.22;1.16;;;0.90;99.90;;;0.43;95.74;99211.44;171726;28;1437;-75
2021/12/17 00:59:06;;;;;;;3.33;1.13;;;0.90;99.90;;;0.43;96.10;99207.94;172518;28;1156;-75
2021/12/17 00:59:12;;;;;;;3.00;1.02;;;0.90;99.90;;;0.51;95.91;99224.31;173226;28;1361;-75
2021/12/17 00:59:19;;;;;;;2.28;0.93;;;0.90;99.90;;;0.52;96.27;99222.50;172497;28;1199;-75
2021/12/17 00:59:25;;;;;;;2.08;0.90;;;0.80;99.90;;;0.50;96.19;99222.59;173463;28;1393;-75
2021/12/17 00:59:32;;;;;;;1.80;0.80;;;0.90;99.90;;;0.47;95.94;99219.25;172534;28;1672;-76
2021/12/17 00:59:42;;;;;;;2.16;0.86;;;0.90;99.90;;;0.43;96.22;99214.09;172532;28;951;-75
2021/12/17 00:59:53;;;;;;;2.50;0.90;;;0.80;99.90;;;0.46;95.82;99220.19;171813;28;994;-75
2021/12/17 00:59:59;;;;;;;2.08;0.91;;;0.90;99.90;;;0.43;96.15;99210.59;171904;28;1404;-75
2021/12/17 01:00:19;;;;;;;1.70;1.00;;;0.80;99.90;;;0.36;95.73;99202.09;171820;28;1155;-75
2021/12/17 01:00:26;;;;;;;1.35;1.01;;;0.80;99.90;;;0.45;96.01;99218.47;171724;28;1717;-75
2021/12/17 01:00:32;;;;;;;1.25;0.90;;;0.90;99.90;;;0.34;96.14;99196.06;171786;28;1331;-75
2021/12/17 01:00:38;;;;;;;1.63;1.00;;;0.80;99.90;;;0.44;96.10;99217.59;172603;28;824;-75
2021/12/17 01:00:46;;;;;;;1.50;0.93;;;0.80;99.90;;;0.13;95.94;99167.19;171059;28;1429;-76
2021/12/17 01:00:52;;;;;;;1.67;1.00;;;0.80;99.90;;;0.33;95.59;99202.28;171833;28;1299;-75
2021/12/17 01:00:58;;;;;;;1.98;1.02;;;0.80;99.90;;;0.40;95.65;99218.72;171847;28;944;-75
2021/12/17 01:01:04;;;;;;;2.12;1.04;;;0.80;99.90;;;0.42;95.72;99222.13;170499;29;924;-75
2021/12/17 01:01:11;;;;;;;2.03;0.93;;;0.80;99.90;;;0.38;95.80;99217.94;172450;28;1307;-75
2021/12/17 01:01:17;;;;;;;1.90;0.90;;;0.80;99.90;;;0.45;95.89;99224.63;173879;28;1311;-75
2021/12/17 01:01:25;;;;;;;1.82;0.88;;;0.80;99.90;;;0.36;95.80;99210.06;171893;28;868;-75
2021/12/17 01:01:31;;;;;;;1.50;0.84;;;0.80;99.90;;;0.47;95.85;99228.03;173188;28;1460;-75
2021/12/17 01:01:37;;;;;;;2.03;0.90;;;0.80;99.90;;;0.47;95.91;99235.97;173104;28;1409;-75
2021/12/17 01:01:45;;;;;;;2.27;0.93;;;0.80;99.90;;;0.35;95.64;99207.50;172601;28;955;-75
2021/12/17 01:01:56;;;;;;;2.61;1.03;;;0.80;99.90;;;0.34;95.54;99208.44;173271;28;1008;-75
2021/12/17 01:02:10;;;;;;;3.13;1.11;;;0.80;99.90;;;0.40;95.47;99216.06;173724;28;2290;-75
2021/12/17 01:02:23;;;;;;;2.69;1.10;;;0.80;99.90;;;0.29;95.95;99202.53;171701;28;1659;-75
2021/12/17 01:02:36;;;;;;;1.71;0.85;;;0.80;99.90;;;0.43;95.75;99229.13;171111;28;1639;-75
2021/12/17 01:02:44;;;;;;;0.93;0.75;;;0.70;99.90;;;0.40;95.65;99229.31;172581;28;1195;-75
2021/12/17 01:02:52;;;;;;;1.16;0.94;;;0.70;99.90;;;0.36;95.91;99219.81;172474;28;1433;-75
2021/12/17 01:02:58;;;;;;;1.47;1.00;;;0.70;99.90;;;0.36;95.91;99220.66;171827;28;1114;-75
2021/12/17 01:03:04;;;;;;;1.83;1.02;;;0.70;99.90;;;0.36;95.74;99220.66;171855;28;1354;-76
2021/12/17 01:03:10;;;;;;;1.90;1.10;;;0.70;99.90;;;0.34;95.47;99219.03;171080;28;1533;-75
2021/12/17 01:03:16;;;;;;;1.67;1.10;;;0.70;99.90;;;0.23;95.86;99194.91;172501;28;1801;-75
2021/12/17 01:03:22;;;;;;;1.65;1.02;;;0.70;99.90;;;0.30;95.94;99213.06;173290;28;1005;-76
2021/12/17 01:03:28;;;;;;;2.22;1.00;;;0.70;99.90;;;0.39;95.88;99231.09;172452;28;1433;-75
2021/12/17 01:03:34;;;;;;;2.38;1.00;;;0.70;99.90;;;0.31;95.94;99212.09;172386;28;1307;-75
2021/12/17 01:03:40;;;;;;;2.40;1.00;;;0.70;99.90;;;0.32;95.61;99224.41;172588;28;876;-75
2021/12/17 01:03:49;;;;;;;2.60;1.02;;;0.70;99.90;;;0.36;95.67;99230.41;172487;28;958;-75
2021/12/17 01:03:56;;;;;;;2.50;1.10;;;0.70;99.90;;;0.24;95.64;99205.44;171206;28;950;-75
2021/12/17 01:04:02;;;;;;;1.87;1.17;;;0.70;99.90;;;0.37;95.86;99221.50;172618;28;864;-75
2021/12/17 01:04:09;;;;;;;2.12;1.20;;;0.70;99.90;;;0.25;95.86;99206.28;171885;28;863;-75
2021/12/17 01:04:15;;;;;;;2.63;1.20;;;0.70;99.90;;;0.31;95.74;99220.03;172493;28;935;-75
2021/12/17 01:04:21;;;;;;;2.73;1.17;;;0.70;99.90;;;0.16;95.35;99188.22;171152;28;1319;-75
2021/12/17 01:04:28;;;;;;;2.75;1.15;;;0.70;99.90;;;0.33;95.23;99222.63;171190;28;864;-75
2021/12/17 01:04:38;;;;;;;2.63;1.02;;;0.70;99.90;;;0.34;95.90;99230.50;172415;28;1435;-75
2021/12/17 01:04:57;;;;;;;2.87;1.04;;;0.70;99.90;;;0.21;95.65;99208.22;171695;28;1409;-75
2021/12/17 01:05:14;;;;;;;2.46;1.00;;;0.70;99.90;;;0.27;95.48;99218.50;171091;28;1336;-76
2021/12/17 01:05:28;;;;;;;2.10;0.94;;;0.60;99.90;;;0.24;95.73;99213.38;172458;28;1476;-75
2021/12/17 01:05:35;;;;;;;2.25;1.09;;;0.60;99.90;;;0.18;95.86;99204.88;173165;28;1198;-76
2021/12/17 01:05:42;;;;;;;3.25;1.75;;;0.70;99.90;;;0.18;95.76;99210.19;171115;28;1646;-75
2021/12/17 01:05:48;;;;;;;3.05;1.78;;;0.60;99.90;;;0.27;95.54;99217.63;172514;28;975;-75
2021/12/17 01:05:54;;;;;;;2.97;1.75;;;0.60;99.90;;;0.29;95.36;99226.38;172463;28;1306;-76
2021/12/17 01:06:01;;;;;;;2.85;1.60;;;0.60;99.90;;;0.23;95.64;99219.59;171149;28;1438;-75
2021/12/17 01:06:07;;;;;;;2.75;1.15;;;0.60;99.90;;;0.19;95.40;99209.25;170945;28;1656;-75
2021/12/17 01:06:13;;;;;;;2.23;0.90;;;0.60;99.90;;;0.29;95.82;99224.59;174348;28;1381;-75
2021/12/17 01:06:20;;;;;;;2.20;0.95;;;0.60;99.90;;;0.26;95.63;99222.06;173077;28;1530;-75
2021/12/17 01:06:26;;;;;;;2.00;0.85;;;0.60;99.90;;;0.16;95.80;99198.81;171170;28;1055;-75
2021/12/17 01:06:32;;;;;;;1.47;0.90;;;0.60;99.90;;;0.19;95.42;99209.25;172621;28;931;-75
2021/12/17 01:06:38;;;;;;;1.23;0.93;;;0.60;99.90;;;0.28;95.86;99222.84;172921;28;1850;-76
2021/12/17 01:06:44;;;;;;;1.40;1.00;;;0.60;99.90;;;0.16;95.59;99206.75;172389;28;1456;-75
2021/12/17 01:06:50;;;;;;;3.37;1.00;;;0.60;99.90;;;0.24;95.97;99218.66;171891;28;924;-76
2021/12/17 01:06:57;;;;;;;3.73;1.13;;;0.60;99.90;;;0.32;95.86;99223.53;173135;28;1314;-75
2021/12/17 01:07:06;;;;;;;4.40;1.27;;;0.60;99.90;;;0.13;96.01;99198.97;173224;28;879;-75
2021/12/17 01:07:13;;;;;;;4.13;1.20;;;0.60;99.90;;;0.24;95.66;99207.22;171952;28;962;-75
2021/12/17 01:07:25;;;;;;;3.08;1.10;;;0.60;99.90;;;0.27;96.29;99215.00;171762;28;1331;-76
2021/12/17 01:07:35;;;;;;;2.83;1.10;;;0.60;99.90;;;0.20;95.92;99201.22;170473;29;1201;-75
2021/12/17 01:07:47;;;;;;;2.72;1.02;;;0.60;99.90;;;0.31;95.71;99225.34;172464;28;1406;-75
2021/12/17 01:07:56;;;;;;;2.88;1.10;;;0.60;99.90;;;0.19;95.94;99206.59;171815;28;1205;-76
2021/12/17 01:08:05;;;;;;;2.13;1.06;;;0.60;99.90;;;0.23;95.44;99209.00;171942;28;1041;-75
2021/12/17 01:08:12;;;;;;;2.27;1.20;;;0.60;99.90;;;0.19;96.02;99209.25;170562;29;900;-76
2021/12/17 01:08:18;;;;;;;2.40;1.13;;;0.60;99.90;;;0.10;95.55;99188.56;172551;28;1382;-76
2021/12/17 01:08:24;;;;;;;2.63;1.17;;;0.60;99.90;;;0.23;95.94;99209.00;172595;28;888;-75
2021/12/17 01:08:30;;;;;;;2.75;1.20;;;0.60;99.90;;;0.22;95.39;99204.63;171784;28;1281;-75
2021/12/17 01:08:36;;;;;;;2.80;1.04;;;0.60;99.90;;;0.22;96.00;99209.06;170488;29;1426;-75
2021/12/17 01:08:43;;;;;;;2.92;1.20;;;0.60;99.90;;;0.22;96.06;99209.06;171892;28;1113;-75
2021/12/17 01:08:50;;;;;;;2.90;1.30;;;0.60;99.90;;;0.22;95.96;99206.44;172512;28;1276;-76
2021/12/17 01:08:56;;;;;;;2.78;1.20;;;0.60;99.90;;;0.26;95.74;99219.44;172451;28;1311;-75
2021/12/17 01:09:05;;;;;;;2.72;1.30;;;0.60;99.90;;;0.15;95.73;99197.13;172937;28;1485;-75
2021/12/17 01:09:16;;;;;;;2.50;1.30;;;0.60;99.90;;;0.07;95.77;99184.25;171917;28;1046;-75
2021/12/17 01:09:26;;;;;;;2.28;1.20;;;0.60;99.90;;;0.17;95.92;99204.03;171671;28;1402;-75
2021/12/17 01:09:33;;;;;;;3.39;1.20;;;0.60;99.90;;;0.23;95.85;99210.78;171748;28;1299;-75
2021/12/17 01:09:39;;;;;;;3.43;1.20;;;0.60;99.90;;;0.17;96.00;99203.16;173193;28;1522;-75
2021/12/17 01:09:47;;;;;;;3.42;1.20;;;0.60;99.90;;;0.18;95.85;99202.22;173923;28;938;-75
2021/12/17 01:09:54;;;;;;;3.08;1.22;;;0.60;99.90;;;0.20;95.68;99203.03;171727;28;1925;-75
2021/12/17 01:10:02;;;;;;;2.37;1.12;;;0.60;99.90;;;0.09;96.23;99182.41;171899;28;1023;-75
2021/12/17 01:10:47;;;;;;;2.40;1.13;;;0.60;99.90;;;0.34;96.35;99208.44;173158;28;1302;-75
2021/12/17 01:10:56;;;;;;;2.41;1.05;;;0.60;99.90;;;0.30;96.47;99213.06;172461;28;1211;-75